Nakskov, Denmark
Current Conditions -  °F | °C
As of 4:50 PM on Friday 24 Oct 2014 (Local Time) from EDHK Reporting Station
Overcast Overcast  
Wind Chill: 55°   Ceiling: 3400
Heat Index: 55°   Visibility: 6mi
Dew Point: 46°   Wind: 9mph
Humidity: 72%   Direction: 190°S
Pressure: 30.06"   Gusts: NA
Location:  54.84°N, 11.13°E
Report Text: EDHK 241450Z 19008KT 160V230 9999 OVC034 13/08 Q1018
Loading
Personal Weather Stations






























Interactive Weather Map
Tropical Storm Tracking
New forecast layout! Learn more

10-Day Weather Forecast

Advertisements
Track Severe Weather on mobile